Time;durP1;ratioP1;P1;durP2;ratioP2;P2;SDS_P1;SDS_P2;PMS_P1;PMS_P2;Temp;Humidity;BMP_temperature;BMP_pressure;BME280_temperature;BME280_humidity;BME280_pressure;Samples;Min_cycle;Max_cycle;Signal;HPM_P1;HPM_P2
2021/11/02 00:01:57;;;;;;;3.95;1.55;;;11.10;99.90;;;;;;5038709;28;20037;-83
2021/11/02 00:04:22;;;;;;;3.67;1.88;;;11.10;99.90;;;;;;5038052;28;20618;-82
2021/11/02 00:06:48;;;;;;;2.35;1.55;;;11.20;99.90;;;;;;5035259;28;20064;-82
2021/11/02 00:09:16;;;;;;;4.03;1.85;;;11.30;99.90;;;;;;5038056;28;20482;-82
2021/11/02 00:11:42;;;;;;;3.17;1.67;;;11.30;99.90;;;;;;5038552;28;20043;-83
2021/11/02 00:14:13;;;;;;;2.88;1.88;;;11.60;99.90;;;;;;5038544;28;20030;-83
2021/11/02 00:16:39;;;;;;;4.47;1.70;;;11.20;99.90;;;;;;5038369;28;20052;-83
2021/11/02 00:19:06;;;;;;;3.75;1.70;;;11.20;99.90;;;;;;5035431;28;20084;-82
2021/11/02 00:21:36;;;;;;;5.65;1.80;;;11.20;99.90;;;;;;5036344;28;20021;-83
2021/11/02 00:24:10;;;;;;;6.25;1.58;;;11.20;99.90;;;;;;5052257;28;20108;-82
2021/11/02 00:26:36;;;;;;;2.05;1.55;;;11.30;99.90;;;;;;5040739;28;20029;-82
2021/11/02 00:29:03;;;;;;;3.17;1.75;;;11.30;99.90;;;;;;5038505;28;20500;-82
2021/11/02 00:31:29;;;;;;;3.55;1.75;;;11.30;99.90;;;;;;5038401;28;20120;-82
2021/11/02 00:33:54;;;;;;;1.73;1.55;;;11.30;99.90;;;;;;5034438;28;20167;-82
2021/11/02 00:36:20;;;;;;;4.95;1.73;;;11.20;99.90;;;;;;5037604;28;20029;-82
2021/11/02 00:38:46;;;;;;;2.75;1.40;;;11.20;99.90;;;;;;5037669;28;20037;-82
2021/11/02 00:41:12;;;;;;;2.85;1.52;;;11.20;99.90;;;;;;5038645;28;20025;-82
2021/11/02 00:43:38;;;;;;;3.20;1.63;;;11.20;99.90;;;;;;5038038;28;20485;-82
2021/11/02 00:46:05;;;;;;;2.03;1.45;;;11.30;99.90;;;;;;5034381;28;20100;-82
2021/11/02 00:48:31;;;;;;;3.28;1.55;;;11.30;99.90;;;;;;5037046;28;20037;-82
2021/11/02 00:50:56;;;;;;;3.17;1.52;;;11.30;99.90;;;;;;5037386;28;20474;-82
2021/11/02 00:53:23;;;;;;;2.38;1.42;;;11.30;99.90;;;;;;5037944;28;20033;-82
2021/11/02 00:55:48;;;;;;;3.33;1.40;;;11.30;99.90;;;;;;5037797;28;20805;-82
2021/11/02 00:58:15;;;;;;;4.38;1.65;;;11.30;99.90;;;;;;5035878;28;20032;-82
2021/11/02 01:00:42;;;;;;;3.92;1.15;;;11.30;99.90;;;;;;5035322;28;20370;-82
2021/11/02 01:03:08;;;;;;;3.05;1.23;;;11.20;99.90;;;;;;5037107;28;20037;-82
2021/11/02 01:05:35;;;;;;;2.30;1.00;;;11.00;99.90;;;;;;5037526;28;20025;-82
2021/11/02 01:08:01;;;;;;;2.03;1.20;;;11.00;99.90;;;;;;5037352;28;20045;-82
2021/11/02 01:10:27;;;;;;;3.92;1.10;;;11.00;99.90;;;;;;5037397;28;20036;-82
2021/11/02 01:12:53;;;;;;;4.22;1.10;;;11.00;99.90;;;;;;5034270;28;20102;-82
2021/11/02 01:15:22;;;;;;;2.33;1.05;;;11.00;99.90;;;;;;5037445;28;20036;-82
2021/11/02 01:17:48;;;;;;;1.60;1.10;;;11.00;99.90;;;;;;5037341;28;20031;-82
2021/11/02 01:20:16;;;;;;;2.05;1.10;;;10.90;99.90;;;;;;5036766;28;20033;-82
2021/11/02 01:22:43;;;;;;;2.05;1.10;;;10.80;99.90;;;;;;5037674;28;20552;-82
2021/11/02 01:25:10;;;;;;;3.45;1.25;;;10.90;99.90;;;;;;5034391;28;20026;-82
2021/11/02 01:27:36;;;;;;;2.08;1.00;;;10.90;99.90;;;;;;5034826;28;20021;-82
2021/11/02 01:30:04;;;;;;;3.55;1.20;;;10.90;99.90;;;;;;5037488;28;20029;-82
2021/11/02 01:32:30;;;;;;;1.75;1.00;;;10.90;99.90;;;;;;5036613;28;20018;-82
2021/11/02 01:34:56;;;;;;;2.10;0.90;;;11.00;99.90;;;;;;5019101;28;20563;-82
2021/11/02 01:37:22;;;;;;;2.50;1.30;;;11.00;99.90;;;;;;5035704;28;20501;-82
2021/11/02 01:39:47;;;;;;;3.25;1.10;;;10.90;99.90;;;;;;5034091;28;20030;-82
2021/11/02 01:42:13;;;;;;;2.65;1.10;;;10.90;99.90;;;;;;5036287;28;20390;-82
2021/11/02 01:44:39;;;;;;;2.25;1.20;;;10.90;99.90;;;;;;5036769;28;20037;-82
2021/11/02 01:47:05;;;;;;;4.22;1.13;;;10.90;99.90;;;;;;5037389;28;20068;-82
2021/11/02 01:49:34;;;;;;;2.70;1.30;;;11.00;99.90;;;;;;5036278;28;20032;-82
2021/11/02 01:52:00;;;;;;;3.78;1.40;;;10.90;99.90;;;;;;4998002;28;20402;-82
2021/11/02 01:54:26;;;;;;;4.00;1.23;;;10.90;99.90;;;;;;5036240;28;20033;-82
2021/11/02 01:56:52;;;;;;;1.98;1.17;;;10.90;99.90;;;;;;5036667;28;20485;-82
2021/11/02 01:59:22;;;;;;;2.17;1.10;;;10.90;99.90;;;;;;5036769;28;20057;-82
2021/11/02 02:01:59;;;;;;;3.50;1.08;;;10.90;99.90;;;;;;5036561;28;20470;-82
2021/11/02 02:04:53;;;;;;;3.30;1.33;;;11.00;99.90;;;;;;5035475;28;20078;-83
2021/11/02 02:07:34;;;;;;;2.38;1.25;;;11.00;99.90;;;;;;5022516;28;20053;-82
2021/11/02 02:10:06;;;;;;;4.97;1.20;;;10.90;99.90;;;;;;5017034;28;20037;-83
2021/11/02 02:12:34;;;;;;;2.40;1.20;;;10.90;99.90;;;;;;5035111;28;20026;-83
2021/11/02 02:15:19;;;;;;;2.95;1.08;;;10.60;99.90;;;;;;5037229;28;20026;-82
2021/11/02 02:18:02;;;;;;;3.15;1.10;;;10.50;99.90;;;;;;5036494;28;20026;-83
2021/11/02 02:20:56;;;;;;;2.05;1.00;;;10.50;99.90;;;;;;5036247;28;20030;-82
2021/11/02 02:23:43;;;;;;;2.28;1.17;;;10.50;99.90;;;;;;5036930;28;20037;-83
2021/11/02 02:26:55;;;;;;;1.90;1.20;;;10.60;99.90;;;;;;5037212;28;20026;-83
2021/11/02 02:29:23;;;;;;;2.80;1.00;;;10.60;99.90;;;;;;5037070;28;20037;-82
2021/11/02 02:31:51;;;;;;;2.65;1.20;;;10.70;99.90;;;;;;5036460;28;20084;-82
2021/11/02 02:34:20;;;;;;;4.10;1.30;;;10.70;99.90;;;;;;5033922;28;20100;-82
2021/11/02 02:36:47;;;;;;;2.90;1.00;;;10.80;99.90;;;;;;5034151;28;20022;-82
2021/11/02 02:39:16;;;;;;;1.83;0.98;;;10.80;99.90;;;;;;5035964;28;20097;-82
2021/11/02 02:41:42;;;;;;;2.42;1.10;;;10.80;99.90;;;;;;5036218;28;20025;-82
2021/11/02 02:44:11;;;;;;;2.80;1.13;;;10.70;99.90;;;;;;5036762;28;20037;-82
2021/11/02 02:46:38;;;;;;;3.45;1.13;;;10.80;99.90;;;;;;5039757;28;20500;-82
2021/11/02 02:49:06;;;;;;;3.83;1.30;;;10.80;99.90;;;;;;5036639;28;20041;-82
2021/11/02 02:51:34;;;;;;;2.55;1.30;;;10.80;99.90;;;;;;5038390;28;20056;-83
2021/11/02 02:54:01;;;;;;;4.25;1.35;;;10.80;99.90;;;;;;5040878;28;20033;-82
2021/11/02 02:56:30;;;;;;;2.47;1.05;;;10.90;99.90;;;;;;5039803;28;20491;-83
2021/11/02 02:59:00;;;;;;;2.45;1.00;;;10.90;99.90;;;;;;5039987;28;20143;-83
2021/11/02 03:01:27;;;;;;;1.83;1.00;;;10.80;99.90;;;;;;5039664;28;20044;-83
2021/11/02 03:04:06;;;;;;;1.92;1.00;;;10.90;99.90;;;;;;5036097;28;20026;-82
2021/11/02 03:06:36;;;;;;;1.67;1.23;;;10.90;99.90;;;;;;5047292;28;20072;-83
2021/11/02 03:09:06;;;;;;;2.58;1.10;;;10.90;99.90;;;;;;5032752;28;20071;-82
2021/11/02 03:11:33;;;;;;;2.90;1.15;;;11.00;99.90;;;;;;5040451;28;20068;-83
2021/11/02 03:14:03;;;;;;;3.20;1.20;;;10.90;99.90;;;;;;5039698;28;20061;-82
2021/11/02 03:16:45;;;;;;;3.85;1.20;;;10.90;99.90;;;;;;5039262;28;20016;-82
2021/11/02 03:49:53;;;;;;;1.35;0.90;;;10.60;99.90;;;;;;4954339;28;20042;-82
2021/11/02 03:55:06;;;;;;;2.47;0.90;;;10.60;99.90;;;;;;4940460;28;20046;-81
2021/11/02 03:57:56;;;;;;;2.40;0.88;;;10.70;99.90;;;;;;4957126;28;20114;-82
2021/11/02 04:46:08;;;;;;;1.90;0.70;;;10.60;99.90;;;;;;5037347;28;20068;-83
2021/11/02 05:48:46;;;;;;;2.17;0.90;;;10.50;99.90;;;;;;4932732;29;20039;-82
2021/11/02 05:52:23;;;;;;;1.50;0.90;;;10.50;99.90;;;;;;4932397;29;20046;-82
2021/11/02 06:04:13;;;;;;;1.17;1.00;;;11.10;99.90;;;;;;4954274;28;20488;-83
2021/11/02 06:07:03;;;;;;;2.05;1.17;;;10.60;99.90;;;;;;4954482;28;20047;-82
2021/11/02 06:09:47;;;;;;;3.33;0.90;;;11.00;99.90;;;;;;4950384;28;20047;-82
2021/11/02 06:29:18;;;;;;;1.73;0.95;;;10.80;99.90;;;;;;5036802;28;20120;-82
2021/11/02 06:31:53;;;;;;;2.83;0.93;;;11.20;99.90;;;;;;5036432;28;20027;-80
2021/11/02 06:34:26;;;;;;;2.95;1.15;;;10.70;99.90;;;;;;5034467;28;20420;-80
2021/11/02 06:51:03;;;;;;;2.50;1.33;;;11.00;99.90;;;;;;5036751;28;20127;-84
2021/11/02 07:18:57;;;;;;;2.10;0.90;;;10.90;99.90;;;;;;5032751;28;20057;-83
2021/11/02 07:21:57;;;;;;;4.13;1.10;;;11.00;99.90;;;;;;5035205;28;20060;-83
2021/11/02 07:24:22;;;;;;;2.78;0.98;;;11.00;99.90;;;;;;5034338;28;20037;-83
2021/11/02 07:27:00;;;;;;;5.07;1.45;;;11.10;99.90;;;;;;5036168;28;20116;-83
2021/11/02 08:48:07;;;;;;;1.00;0.57;;;26.00;99.90;;;;;;5039424;28;20040;-83
2021/11/02 08:50:39;;;;;;;0.60;0.57;;;27.50;99.90;;;;;;5037861;28;20037;-84
2021/11/02 08:53:08;;;;;;;2.33;0.60;;;25.60;99.90;;;;;;5037952;28;20107;-84
2021/11/02 08:55:37;;;;;;;2.90;0.73;;;25.40;99.90;;;;;;5037926;28;20025;-84
2021/11/02 08:58:04;;;;;;;2.10;0.68;;;25.50;99.90;;;;;;5034317;28;20013;-84
2021/11/02 09:00:30;;;;;;;0.80;0.63;;;23.40;99.90;;;;;;5036576;28;20033;-85
2021/11/02 09:03:14;;;;;;;1.45;0.77;;;23.50;99.90;;;;;;5039386;28;20379;-84
2021/11/02 09:05:42;;;;;;;1.48;0.70;;;26.00;99.90;;;;;;5037761;28;20028;-85
2021/11/02 09:08:10;;;;;;;0.88;0.70;;;27.60;99.90;;;;;;5037735;28;20498;-85
2021/11/02 09:10:38;;;;;;;1.30;0.75;;;28.60;99.90;;;;;;5037615;28;20045;-85
2021/11/02 09:13:06;;;;;;;1.50;0.70;;;29.60;99.90;;;;;;5033703;28;20477;-86
2021/11/02 09:15:36;;;;;;;2.30;0.70;;;30.50;99.90;;;;;;5036225;28;20429;-85
2021/11/02 09:18:09;;;;;;;0.68;0.55;;;29.50;99.90;;;;;;5038294;28;20053;-85
2021/11/02 09:20:39;;;;;;;1.60;0.60;;;30.20;99.90;;;;;;5035157;28;20037;-85
2021/11/02 09:23:06;;;;;;;0.70;0.50;;;27.10;99.90;;;;;;5037339;28;20685;-85
2021/11/02 09:25:33;;;;;;;2.03;0.60;;;26.60;99.90;;;;;;5037514;28;20542;-85
2021/11/02 09:27:59;;;;;;;0.80;0.63;;;28.30;99.90;;;;;;5017536;28;20025;-85
2021/11/02 09:30:25;;;;;;;0.40;0.40;;;28.90;99.90;;;;;;5036750;28;20576;-86
2021/11/02 09:32:53;;;;;;;1.00;0.68;;;26.30;99.90;;;;;;5037082;28;20025;-86
2021/11/02 09:35:21;;;;;;;1.60;0.80;;;22.50;99.90;;;;;;5037031;28;20037;-85
2021/11/02 09:38:14;;;;;;;1.83;0.80;;;24.30;99.90;;;;;;5036974;28;20079;-85
2021/11/02 09:41:13;;;;;;;3.35;0.82;;;25.60;99.90;;;;;;5037182;28;20032;-85
2021/11/02 09:43:54;;;;;;;2.38;1.10;;;20.70;99.90;;;;;;5019118;28;20087;-85
2021/11/02 09:46:42;;;;;;;0.70;0.70;;;19.40;99.90;;;;;;5034915;28;20088;-85
2021/11/02 09:49:34;;;;;;;1.63;0.70;;;17.80;99.90;;;;;;5018488;28;20055;-85
2021/11/02 09:52:18;;;;;;;1.30;0.80;;;16.70;99.90;;;;;;5017022;28;20039;-83
2021/11/02 09:55:30;;;;;;;1.67;0.90;;;16.80;99.90;;;;;;5046585;28;20025;-86
2021/11/02 09:58:33;;;;;;;1.98;0.93;;;21.30;99.90;;;;;;5048712;28;20033;-86
2021/11/02 10:01:06;;;;;;;2.88;1.13;;;25.50;99.90;;;;;;5016672;28;20441;-86
2021/11/02 10:04:05;;;;;;;1.05;0.85;;;28.30;99.90;;;;;;5035293;28;20401;-86
2021/11/02 10:06:53;;;;;;;1.17;0.70;;;29.00;99.90;;;;;;5030144;28;20104;-86
2021/11/02 10:09:46;;;;;;;0.98;0.80;;;28.30;99.90;;;;;;5036155;28;20095;-86
2021/11/02 10:12:21;;;;;;;3.42;0.85;;;29.10;99.90;;;;;;5034284;28;20025;-85
2021/11/02 10:15:02;;;;;;;1.33;0.70;;;32.60;99.90;;;;;;5019444;28;20034;-85
2021/11/02 10:18:03;;;;;;;2.28;0.80;;;32.20;99.90;;;;;;5036502;28;20116;-83
2021/11/02 10:21:10;;;;;;;1.13;0.65;;;31.80;99.90;;;;;;5036810;28;20042;-87
2021/11/02 10:24:00;;;;;;;2.25;0.80;;;32.00;99.90;;;;;;5036755;28;20568;-85
2021/11/02 10:26:44;;;;;;;1.05;0.55;;;31.70;99.90;;;;;;5036956;28;20108;-89
2021/11/02 10:29:14;;;;;;;1.00;0.63;;;31.20;99.90;;;;;;5036279;28;20435;-86
2021/11/02 10:32:06;;;;;;;0.95;0.55;;;30.90;99.90;;;;;;5035963;28;20031;-86
2021/11/02 10:34:50;;;;;;;1.48;0.80;;;30.50;99.90;;;;;;5036248;28;20143;-85
2021/11/02 10:37:39;;;;;;;1.25;0.77;;;31.20;99.90;;;;;;5020637;28;20022;-86
2021/11/02 10:40:18;;;;;;;0.82;0.57;;;31.70;99.90;;;;;;5016472;28;20466;-85
2021/11/02 10:42:55;;;;;;;2.72;0.55;;;33.80;99.90;;;;;;5034850;28;20025;-86
2021/11/02 10:45:26;;;;;;;1.13;0.47;;;33.10;99.90;;;;;;5016923;28;20030;-86
2021/11/02 10:48:10;;;;;;;1.48;0.80;;;33.20;99.90;;;;;;5035778;28;20575;-86
2021/11/02 10:50:38;;;;;;;1.33;0.47;;;33.70;99.90;;;;;;5036247;28;20120;-83
2021/11/02 10:53:06;;;;;;;1.00;0.68;;;33.40;99.90;;;;;;5036324;28;20029;-83
2021/11/02 10:55:50;;;;;;;1.33;0.50;;;33.40;99.90;;;;;;5036219;28;20029;-84
2021/11/02 10:58:44;;;;;;;3.15;0.68;;;34.80;99.90;;;;;;5020756;28;20100;-83
2021/11/02 11:01:12;;;;;;;0.95;0.70;;;32.40;99.90;;;;;;5018459;28;20037;-82
2021/11/02 11:03:40;;;;;;;1.38;0.88;;;30.20;99.90;;;;;;5016015;28;20021;-83
2021/11/02 11:06:08;;;;;;;1.08;0.70;;;31.00;99.90;;;;;;5037462;28;20048;-82
2021/11/02 11:08:39;;;;;;;1.83;0.70;;;31.10;99.90;;;;;;5040091;28;20045;-83
2021/11/02 11:11:10;;;;;;;0.88;0.60;;;30.40;99.90;;;;;;5039899;28;20034;-84
2021/11/02 11:13:38;;;;;;;1.33;0.70;;;31.90;99.90;;;;;;5040111;28;20108;-84
2021/11/02 11:16:16;;;;;;;1.02;0.70;;;32.90;99.90;;;;;;5035357;28;20456;-86
2021/11/02 11:19:07;;;;;;;1.02;0.47;;;32.70;99.90;;;;;;5037236;28;20119;-87
2021/11/02 11:21:37;;;;;;;0.88;0.43;;;27.70;99.90;;;;;;5047129;28;20043;-84
2021/11/02 11:24:06;;;;;;;1.00;0.60;;;24.20;99.90;;;;;;5040300;28;20030;-86
2021/11/02 11:26:32;;;;;;;0.75;0.50;;;22.50;99.90;;;;;;5039481;28;20034;-86
2021/11/02 11:29:02;;;;;;;0.98;0.63;;;21.30;99.90;;;;;;5039055;28;20045;-87
2021/11/02 11:31:29;;;;;;;1.05;0.82;;;20.50;99.90;;;;;;5038810;28;20504;-85
2021/11/02 11:34:02;;;;;;;2.15;0.70;;;20.30;99.90;;;;;;5035710;28;20030;-88
2021/11/02 11:36:33;;;;;;;1.48;0.60;;;19.90;99.90;;;;;;5038542;28;20030;-86
2021/11/02 11:39:03;;;;;;;1.48;0.70;;;19.60;99.90;;;;;;5039104;28;20049;-85
2021/11/02 11:41:33;;;;;;;1.05;0.60;;;20.60;99.90;;;;;;5038915;28;20079;-85
2021/11/02 11:44:02;;;;;;;1.52;0.70;;;20.70;99.90;;;;;;5038422;28;20037;-85
2021/11/02 11:46:30;;;;;;;1.48;0.57;;;25.70;99.90;;;;;;5039310;28;20154;-86
2021/11/02 11:48:59;;;;;;;0.95;0.65;;;25.50;99.90;;;;;;5035020;28;20437;-86
2021/11/02 11:51:28;;;;;;;1.08;0.60;;;24.60;99.90;;;;;;5038861;28;20385;-87
2021/11/02 11:54:01;;;;;;;1.23;0.60;;;25.90;99.90;;;;;;5039031;28;20453;-85
2021/11/02 11:56:36;;;;;;;0.85;0.40;;;23.50;99.90;;;;;;5038715;28;20055;-86
2021/11/02 11:59:03;;;;;;;1.55;0.60;;;25.80;99.90;;;;;;5038516;28;20123;-83
2021/11/02 12:01:40;;;;;;;1.70;0.82;;;25.00;99.90;;;;;;5038057;28;20063;-87
2021/11/02 12:04:12;;;;;;;2.05;0.65;;;24.50;99.90;;;;;;5020239;28;20045;-87
2021/11/02 12:06:50;;;;;;;1.02;0.60;;;25.10;99.90;;;;;;5018929;28;20052;-85
2021/11/02 12:09:18;;;;;;;1.00;0.47;;;26.50;99.90;;;;;;5036863;28;20037;-85
2021/11/02 12:11:45;;;;;;;2.45;0.60;;;24.70;99.90;;;;;;5038973;28;20053;-84
2021/11/02 12:14:22;;;;;;;1.30;0.60;;;22.10;99.90;;;;;;5038440;28;20021;-84
2021/11/02 12:16:50;;;;;;;1.30;0.65;;;21.30;99.90;;;;;;5038849;28;20074;-84
2021/11/02 12:19:35;;;;;;;2.22;0.80;;;20.40;99.90;;;;;;5018805;28;20544;-85
2021/11/02 12:22:07;;;;;;;0.95;0.55;;;19.20;99.90;;;;;;5018315;28;20031;-85
2021/11/02 12:24:36;;;;;;;1.00;0.65;;;18.40;99.90;;;;;;5037207;28;20060;-85
2021/11/02 12:27:18;;;;;;;1.10;0.60;;;18.00;99.90;;;;;;5038213;28;20539;-84
2021/11/02 12:29:44;;;;;;;0.75;0.57;;;17.70;99.90;;;;;;5038653;28;20037;-84
2021/11/02 12:32:13;;;;;;;1.27;0.50;;;17.60;99.90;;;;;;5037970;28;20072;-85
2021/11/02 12:34:49;;;;;;;0.77;0.50;;;17.40;99.90;;;;;;5038487;28;20013;-84
2021/11/02 12:37:15;;;;;;;1.10;0.60;;;17.30;99.90;;;;;;5035873;28;20104;-85
2021/11/02 12:39:42;;;;;;;0.57;0.38;;;17.00;99.90;;;;;;5035654;28;20109;-84
2021/11/02 12:42:08;;;;;;;1.83;0.55;;;16.90;99.90;;;;;;5037372;28;20080;-85
2021/11/02 12:44:38;;;;;;;1.05;0.50;;;17.10;99.90;;;;;;5038539;28;20021;-84
2021/11/02 12:47:07;;;;;;;1.27;0.63;;;17.10;99.90;;;;;;5038005;28;20121;-85
2021/11/02 12:49:39;;;;;;;0.82;0.55;;;17.40;99.90;;;;;;5038043;28;20032;-84
2021/11/02 12:52:07;;;;;;;2.40;0.80;;;18.30;99.90;;;;;;5019753;28;20091;-84
2021/11/02 12:54:34;;;;;;;2.17;0.98;;;18.90;99.90;;;;;;5036410;28;20087;-85
2021/11/02 12:57:12;;;;;;;1.58;0.75;;;19.90;99.90;;;;;;5037775;28;20156;-84
2021/11/02 12:59:58;;;;;;;1.20;0.65;;;21.10;99.90;;;;;;5037741;28;20035;-84
2021/11/02 13:02:41;;;;;;;1.30;0.60;;;24.70;99.90;;;;;;5037686;28;20030;-85
2021/11/02 13:05:16;;;;;;;1.33;0.80;;;25.70;99.90;;;;;;5038550;28;20032;-85
2021/11/02 13:07:43;;;;;;;2.45;0.77;;;26.10;99.90;;;;;;5038002;28;20041;-85
2021/11/02 13:10:12;;;;;;;2.03;0.68;;;24.20;99.90;;;;;;5033977;28;20453;-85
2021/11/02 13:12:40;;;;;;;2.20;0.60;;;23.50;99.90;;;;;;5035181;28;20030;-85
2021/11/02 13:15:11;;;;;;;1.80;0.60;;;24.30;99.90;;;;;;5037400;28;20034;-85
2021/11/02 13:17:41;;;;;;;1.48;0.60;;;24.20;99.90;;;;;;5037330;28;20037;-85
2021/11/02 13:20:08;;;;;;;1.35;0.55;;;25.40;99.90;;;;;;5037222;28;20512;-85
2021/11/02 13:22:34;;;;;;;1.13;0.47;;;24.70;99.90;;;;;;5037429;28;20036;-84
2021/11/02 13:25:12;;;;;;;0.82;0.60;;;23.40;99.90;;;;;;5033187;28;20021;-85
2021/11/02 13:27:42;;;;;;;0.90;0.50;;;22.20;99.90;;;;;;5045483;28;20040;-84
2021/11/02 13:30:27;;;;;;;1.05;0.50;;;21.20;99.90;;;;;;5036425;28;20121;-85
2021/11/02 13:33:12;;;;;;;0.63;0.50;;;20.50;99.90;;;;;;5037252;28;20018;-84
2021/11/02 13:36:01;;;;;;;1.35;0.60;;;21.00;99.90;;;;;;5037130;28;20037;-84
2021/11/02 13:38:36;;;;;;;0.85;0.52;;;21.00;99.90;;;;;;5037030;28;20034;-84
2021/11/02 13:41:09;;;;;;;1.13;0.63;;;21.90;99.90;;;;;;5036809;28;20516;-84
2021/11/02 13:43:38;;;;;;;1.52;0.77;;;21.20;99.90;;;;;;5037479;28;20032;-85
2021/11/02 13:46:07;;;;;;;1.52;0.60;;;20.10;99.90;;;;;;5033034;28;20035;-84
2021/11/02 13:48:34;;;;;;;0.63;0.50;;;20.20;99.90;;;;;;5035237;28;20034;-84
2021/11/02 13:51:01;;;;;;;1.73;0.70;;;20.30;99.90;;;;;;5036886;28;20018;-85
2021/11/02 13:53:32;;;;;;;2.63;1.10;;;19.30;99.90;;;;;;5036885;28;20033;-85
2021/11/02 13:55:58;;;;;;;2.80;0.80;;;19.00;99.90;;;;;;5037053;28;20481;-85
2021/11/02 13:58:24;;;;;;;3.97;0.77;;;19.00;99.90;;;;;;5035493;28;20040;-85
2021/11/02 14:00:49;;;;;;;2.08;0.60;;;19.20;99.90;;;;;;5033651;28;20481;-85
2021/11/02 14:03:25;;;;;;;5.72;0.70;;;19.00;99.90;;;;;;5036054;28;20501;-85
2021/11/02 14:05:53;;;;;;;1.20;0.50;;;19.40;99.90;;;;;;5036917;28;20513;-85
2021/11/02 14:08:21;;;;;;;0.68;0.50;;;19.00;99.90;;;;;;5036844;28;20053;-85
2021/11/02 14:10:55;;;;;;;0.50;0.38;;;18.60;99.90;;;;;;5036181;28;20033;-85
2021/11/02 14:13:56;;;;;;;1.42;0.50;;;18.30;99.90;;;;;;5035650;28;20386;-84
2021/11/02 14:16:29;;;;;;;0.75;0.55;;;18.50;99.90;;;;;;4958579;28;20097;-85
2021/11/02 14:18:56;;;;;;;1.90;0.52;;;18.70;99.90;;;;;;4969807;28;20039;-85
2021/11/02 14:21:47;;;;;;;2.05;0.73;;;18.80;99.90;;;;;;4966720;28;20548;-85
2021/11/02 14:24:14;;;;;;;1.73;0.60;;;19.10;99.90;;;;;;4949784;29;20043;-85
2021/11/02 14:26:47;;;;;;;1.52;0.77;;;19.40;99.90;;;;;;4963703;28;20054;-84
2021/11/02 14:29:13;;;;;;;1.52;0.60;;;19.70;99.90;;;;;;4965327;28;20480;-84
2021/11/02 14:31:40;;;;;;;1.10;0.70;;;19.10;99.90;;;;;;4965563;28;20047;-84
2021/11/02 14:34:27;;;;;;;0.45;0.40;;;18.50;99.90;;;;;;4969472;28;20129;-85
2021/11/02 14:37:15;;;;;;;1.13;0.70;;;19.00;99.90;;;;;;4969085;28;20842;-85
2021/11/02 14:39:55;;;;;;;1.55;0.40;;;18.80;99.90;;;;;;4967773;28;20039;-85
2021/11/02 14:42:44;;;;;;;0.80;0.60;;;18.60;99.90;;;;;;4973544;28;20022;-85
2021/11/02 14:45:11;;;;;;;2.25;0.70;;;18.40;99.90;;;;;;4974225;28;20089;-85
2021/11/02 14:47:38;;;;;;;1.08;0.70;;;17.70;99.90;;;;;;4969581;28;20094;-85
2021/11/02 14:50:34;;;;;;;2.08;0.60;;;17.60;99.90;;;;;;4996881;28;20048;-84
2021/11/02 14:53:16;;;;;;;1.13;0.82;;;17.60;99.90;;;;;;5047671;28;20494;-85
2021/11/02 14:55:52;;;;;;;1.95;0.52;;;17.10;99.90;;;;;;5040049;28;20036;-84
2021/11/02 14:58:39;;;;;;;1.52;0.77;;;17.00;99.90;;;;;;5037963;28;20397;-84
2021/11/02 15:01:05;;;;;;;1.23;0.55;;;16.80;99.90;;;;;;5021088;28;20112;-85
2021/11/02 15:03:35;;;;;;;1.48;0.73;;;16.60;99.90;;;;;;5038651;28;20034;-84
2021/11/02 15:06:12;;;;;;;2.42;0.77;;;16.40;99.90;;;;;;5040408;28;20025;-85
2021/11/02 15:08:42;;;;;;;1.65;0.70;;;16.50;99.90;;;;;;5039533;28;20132;-85
2021/11/02 15:11:13;;;;;;;1.42;0.80;;;16.30;99.90;;;;;;5039963;28;20036;-85
2021/11/02 15:13:39;;;;;;;1.15;0.70;;;16.70;99.90;;;;;;5039892;28;20048;-85
2021/11/02 15:16:06;;;;;;;1.92;0.73;;;16.50;99.90;;;;;;5036055;28;20301;-84
2021/11/02 15:18:42;;;;;;;1.20;0.60;;;16.60;99.90;;;;;;5038246;28;20021;-85
2021/11/02 15:21:10;;;;;;;2.65;0.80;;;16.90;99.90;;;;;;5040869;28;20025;-85
2021/11/02 15:23:43;;;;;;;1.52;0.77;;;17.10;99.90;;;;;;5040221;28;20375;-85
2021/11/02 15:26:10;;;;;;;1.83;0.95;;;16.70;99.90;;;;;;5039382;28;20060;-85
2021/11/02 15:28:48;;;;;;;1.30;0.88;;;16.50;99.90;;;;;;5039896;28;20074;-85
2021/11/02 15:31:15;;;;;;;1.20;0.88;;;16.70;99.90;;;;;;5036918;28;20112;-84
2021/11/02 15:33:43;;;;;;;2.45;0.88;;;16.40;99.90;;;;;;5036844;28;20022;-85
2021/11/02 15:36:15;;;;;;;2.25;0.70;;;16.40;99.90;;;;;;5038580;28;20037;-85
2021/11/02 15:38:41;;;;;;;1.30;0.73;;;16.10;99.90;;;;;;5039366;28;20033;-85
2021/11/02 15:41:17;;;;;;;2.15;0.63;;;15.90;99.90;;;;;;5039400;28;20509;-85
2021/11/02 15:43:58;;;;;;;3.47;1.27;;;15.70;99.90;;;;;;5038483;28;20506;-88
2021/11/02 15:46:41;;;;;;;3.88;1.13;;;15.50;99.90;;;;;;5037074;28;20037;-88
2021/11/02 15:49:13;;;;;;;1.77;0.88;;;15.40;99.90;;;;;;5020870;28;20068;-87
2021/11/02 15:51:41;;;;;;;2.05;1.00;;;15.50;99.90;;;;;;5035404;28;20040;-88
2021/11/02 15:54:13;;;;;;;2.65;0.80;;;15.40;99.90;;;;;;5038880;28;20031;-88
2021/11/02 15:56:40;;;;;;;2.17;0.80;;;15.20;99.90;;;;;;5022277;28;20036;-88
2021/11/02 15:59:10;;;;;;;5.65;1.23;;;15.50;99.90;;;;;;5038322;28;20125;-88
2021/11/02 16:01:45;;;;;;;1.40;0.80;;;14.80;99.90;;;;;;5021537;28;20063;-89
2021/11/02 16:04:17;;;;;;;1.77;0.70;;;14.80;99.90;;;;;;5036210;28;20029;-88
2021/11/02 16:07:10;;;;;;;1.02;0.60;;;15.30;99.90;;;;;;5036016;28;20387;-88
2021/11/02 16:09:49;;;;;;;3.25;1.20;;;14.90;99.90;;;;;;5046986;28;20230;-84
2021/11/02 16:12:48;;;;;;;3.33;0.73;;;14.80;99.90;;;;;;5035900;28;20104;-85
2021/11/02 16:15:19;;;;;;;2.00;0.80;;;14.80;99.90;;;;;;4976480;28;20051;-85
2021/11/02 16:17:56;;;;;;;1.08;0.80;;;14.80;99.90;;;;;;4976837;28;20442;-85
2021/11/02 16:20:27;;;;;;;2.08;1.13;;;14.90;99.90;;;;;;4976328;28;20037;-84
2021/11/02 16:23:02;;;;;;;1.52;0.90;;;14.30;99.90;;;;;;4976249;28;20019;-84
2021/11/02 16:25:30;;;;;;;3.55;1.05;;;14.10;99.90;;;;;;4975104;28;20034;-84
2021/11/02 16:27:59;;;;;;;3.13;0.90;;;14.20;99.90;;;;;;4972844;28;20030;-85
2021/11/02 16:30:40;;;;;;;2.22;0.90;;;14.10;99.90;;;;;;4976917;28;20508;-84
2021/11/02 16:33:07;;;;;;;3.90;1.10;;;13.90;99.90;;;;;;4973397;28;20027;-84
2021/11/02 16:35:45;;;;;;;1.33;0.80;;;13.80;99.90;;;;;;4975562;28;20451;-85
2021/11/02 16:38:32;;;;;;;3.28;1.00;;;13.80;99.90;;;;;;4976222;28;20538;-84
2021/11/02 16:40:59;;;;;;;2.22;0.98;;;13.80;99.90;;;;;;4975835;28;20034;-84
2021/11/02 16:43:30;;;;;;;2.42;1.05;;;13.80;99.90;;;;;;4974845;28;20084;-84
2021/11/02 16:45:56;;;;;;;3.05;0.90;;;13.60;99.90;;;;;;4972111;28;20038;-84
2021/11/02 16:48:41;;;;;;;2.05;1.13;;;13.60;99.90;;;;;;4975926;28;20173;-85
2021/11/02 16:51:08;;;;;;;1.58;1.02;;;13.50;99.90;;;;;;5006787;28;20501;-84
2021/11/02 16:53:34;;;;;;;2.35;1.20;;;13.50;99.90;;;;;;5037827;28;20017;-84
2021/11/02 16:56:09;;;;;;;2.05;1.05;;;13.40;99.90;;;;;;5038026;28;20048;-84
2021/11/02 16:58:44;;;;;;;2.30;1.33;;;13.50;99.90;;;;;;5038789;28;20024;-84
2021/11/02 17:01:15;;;;;;;2.88;1.20;;;13.30;99.90;;;;;;5034732;28;20110;-84
2021/11/02 17:03:43;;;;;;;1.38;0.93;;;13.30;99.90;;;;;;5034016;28;20504;-85
2021/11/02 17:06:18;;;;;;;3.42;1.27;;;13.40;99.90;;;;;;5037747;28;20390;-83
2021/11/02 17:09:02;;;;;;;4.68;1.30;;;13.40;99.90;;;;;;5037617;28;20045;-84
2021/11/02 17:11:28;;;;;;;2.13;1.30;;;13.40;99.90;;;;;;5037847;28;20108;-84
2021/11/02 17:13:55;;;;;;;2.85;1.20;;;13.30;99.90;;;;;;5037285;28;20036;-84
2021/11/02 17:16:25;;;;;;;3.20;1.40;;;13.30;99.90;;;;;;5036047;28;20056;-84
2021/11/02 17:18:59;;;;;;;3.50;1.35;;;13.20;99.90;;;;;;5035014;28;20022;-84
2021/11/02 17:21:28;;;;;;;1.40;1.00;;;13.30;99.90;;;;;;5036859;28;20029;-84
2021/11/02 17:23:55;;;;;;;2.33;1.25;;;13.30;99.90;;;;;;5037876;28;20094;-84
2021/11/02 17:26:36;;;;;;;2.60;1.00;;;13.40;99.90;;;;;;5086892;28;20442;-83
2021/11/02 17:29:03;;;;;;;3.25;1.38;;;13.50;99.90;;;;;;5077816;28;20027;-84
2021/11/02 17:31:37;;;;;;;3.33;1.25;;;13.50;99.90;;;;;;5069133;28;20020;-87
2021/11/02 17:34:07;;;;;;;2.28;1.25;;;13.40;99.90;;;;;;5051320;28;20402;-84
2021/11/02 17:36:35;;;;;;;2.70;1.30;;;13.50;99.90;;;;;;5072530;28;20055;-84
2021/11/02 17:39:03;;;;;;;3.40;1.80;;;13.40;99.90;;;;;;5070200;28;20024;-84
2021/11/02 17:41:30;;;;;;;5.47;2.30;;;13.50;99.90;;;;;;5071226;28;20510;-84
2021/11/02 17:43:56;;;;;;;3.47;1.40;;;13.50;99.90;;;;;;5070665;28;20025;-84
2021/11/02 17:46:22;;;;;;;2.22;1.48;;;13.40;99.90;;;;;;5069284;28;20106;-84
2021/11/02 17:48:49;;;;;;;3.85;1.38;;;13.40;99.90;;;;;;5067840;28;20032;-83
2021/11/02 17:51:15;;;;;;;4.55;1.70;;;13.40;99.90;;;;;;5072575;28;20041;-84
2021/11/02 17:53:42;;;;;;;4.93;1.40;;;13.50;99.90;;;;;;5070552;28;20052;-84
2021/11/02 17:56:10;;;;;;;3.45;1.42;;;13.40;99.90;;;;;;5070157;28;20021;-84
2021/11/02 17:58:41;;;;;;;2.03;1.30;;;13.40;99.90;;;;;;5070867;28;20032;-84
2021/11/02 18:01:09;;;;;;;3.58;1.30;;;13.50;99.90;;;;;;5065259;28;20032;-84
2021/11/02 18:03:37;;;;;;;1.77;1.20;;;13.60;99.90;;;;;;5070731;28;20021;-84